createdAt,value
2019-04-04T00:00:28.507Z,23.70
2019-04-04T00:01:28.460Z,23.80
2019-04-04T00:02:28.399Z,19.90
2019-04-04T00:03:28.364Z,22.30
2019-04-04T00:04:28.290Z,21.90
2019-04-04T00:05:28.233Z,18.70
2019-04-04T00:06:28.182Z,18.40
2019-04-04T00:07:29.183Z,20.60
2019-04-04T00:08:30.915Z,22.90
2019-04-04T00:09:28.019Z,18.90
2019-04-04T00:10:27.967Z,19.00
2019-04-04T00:11:27.915Z,25.50
2019-04-04T00:12:27.854Z,20.60
2019-04-04T00:13:27.822Z,16.40
2019-04-04T00:14:27.747Z,17.30
2019-04-04T00:15:27.691Z,16.00
2019-04-04T00:16:27.636Z,15.40
2019-04-04T00:17:27.581Z,15.20
2019-04-04T00:18:27.999Z,13.90
2019-04-04T00:19:27.877Z,14.20
2019-04-04T00:20:27.418Z,14.20
2019-04-04T00:21:27.363Z,14.80
2019-04-04T00:22:27.321Z,15.20
2019-04-04T00:23:27.277Z,16.20
2019-04-04T00:24:27.200Z,16.90
2019-04-04T00:25:27.145Z,16.50
2019-04-04T00:26:27.149Z,18.80
2019-04-04T00:27:27.039Z,16.90
2019-04-04T00:28:27.008Z,16.20
2019-04-04T00:29:26.929Z,15.80
2019-04-04T00:30:26.873Z,16.70
2019-04-04T00:31:26.817Z,16.00
2019-04-04T00:32:26.763Z,17.20
2019-04-04T00:33:26.735Z,17.80
2019-04-04T00:34:28.124Z,17.40
2019-04-04T00:35:26.607Z,18.00
2019-04-04T00:36:26.553Z,15.90
2019-04-04T00:37:26.495Z,16.70
2019-04-04T00:38:26.465Z,19.40
2019-04-04T00:39:26.383Z,20.40
2019-04-04T00:40:26.326Z,18.70
2019-04-04T00:41:26.280Z,18.00
2019-04-04T00:42:26.220Z,16.20
2019-04-04T00:43:26.191Z,16.80
2019-04-04T00:44:26.109Z,19.60
2019-04-04T00:45:28.626Z,20.40
2019-04-04T00:46:26.010Z,18.40
2019-04-04T00:47:25.947Z,20.00
2019-04-04T00:48:25.917Z,19.30
2019-04-04T00:49:25.836Z,19.10
2019-04-04T00:50:25.784Z,20.50
2019-04-04T00:51:25.729Z,21.30
2019-04-04T00:52:25.677Z,21.90
2019-04-04T00:53:25.644Z,24.80
2019-04-04T00:54:25.562Z,19.30
2019-04-04T00:55:25.512Z,18.80
2019-04-04T00:56:25.462Z,19.00
2019-04-04T00:57:25.400Z,21.90
2019-04-04T00:58:25.372Z,20.80
2019-04-04T00:59:25.289Z,23.10
2019-04-04T01:00:25.238Z,19.70
2019-04-04T01:01:26.880Z,21.00
2019-04-04T01:02:27.266Z,18.90
2019-04-04T01:03:25.099Z,22.30
2019-04-04T01:04:25.023Z,19.50
2019-04-04T01:05:24.961Z,19.30
2019-04-04T01:06:24.909Z,28.90
2019-04-04T01:07:24.855Z,22.80
2019-04-04T01:08:24.795Z,25.00
2019-04-04T01:09:24.772Z,24.80
2019-04-04T01:10:24.692Z,20.40
2019-04-04T01:11:24.650Z,21.00
2019-04-04T01:12:24.581Z,23.10
2019-04-04T01:13:27.374Z,22.00
2019-04-04T01:14:24.504Z,19.50
2019-04-04T01:15:24.428Z,21.70
2019-04-04T01:16:24.365Z,21.70
2019-04-04T01:17:24.310Z,19.00
2019-04-04T01:18:24.254Z,21.20
2019-04-04T01:19:24.223Z,19.70
2019-04-04T01:20:24.142Z,20.30
2019-04-04T01:21:24.097Z,21.70
2019-04-04T01:22:25.015Z,22.00
2019-04-04T01:23:25.140Z,20.10
2019-04-04T01:24:23.953Z,19.00
2019-04-04T01:25:23.870Z,19.70
2019-04-04T01:26:23.819Z,21.00
2019-04-04T01:27:23.760Z,21.50
2019-04-04T01:28:23.711Z,22.90
2019-04-04T01:29:23.676Z,25.30
2019-04-04T01:30:23.597Z,25.10
2019-04-04T01:31:23.542Z,25.70
2019-04-04T01:32:23.486Z,26.90
2019-04-04T01:33:23.433Z,27.40
2019-04-04T01:34:23.403Z,23.70
2019-04-04T01:35:23.328Z,22.00
2019-04-04T01:36:25.328Z,21.90
2019-04-04T01:37:23.210Z,21.00
2019-04-04T01:38:23.161Z,19.60
2019-04-04T01:39:23.127Z,20.90
2019-04-04T01:40:23.048Z,18.20
2019-04-04T01:41:22.993Z,17.80
2019-04-04T01:42:22.941Z,18.20
2019-04-04T01:43:22.885Z,18.90
2019-04-04T01:44:22.853Z,18.90
2019-04-04T01:45:22.775Z,20.50
2019-04-04T01:46:22.720Z,18.60
2019-04-04T01:47:22.670Z,17.40
2019-04-04T01:48:22.608Z,19.50
2019-04-04T01:49:22.584Z,20.50
2019-04-04T01:50:23.266Z,21.00
2019-04-04T01:51:23.231Z,22.10
2019-04-04T01:52:22.395Z,20.50
2019-04-04T01:53:22.335Z,20.50
2019-04-04T01:54:22.300Z,19.60
2019-04-04T01:55:22.224Z,21.40
2019-04-04T01:56:22.173Z,21.90
2019-04-04T01:57:22.114Z,27.50
2019-04-04T01:58:22.061Z,24.40
2019-04-04T01:59:22.027Z,23.20
2019-04-04T02:00:21.941Z,24.90
2019-04-04T02:01:21.897Z,21.70
2019-04-04T02:02:21.845Z,20.50
2019-04-04T02:03:22.673Z,22.00
2019-04-04T02:04:22.945Z,20.80
2019-04-04T02:05:21.675Z,22.40
2019-04-04T02:06:21.619Z,22.30
2019-04-04T02:07:21.563Z,24.10
2019-04-04T02:08:21.508Z,21.60
2019-04-04T02:09:21.474Z,24.50
2019-04-04T02:10:21.398Z,23.20
2019-04-04T02:11:21.348Z,21.50
2019-04-04T02:12:21.291Z,19.50
2019-04-04T02:13:21.237Z,20.40
2019-04-04T02:14:21.199Z,20.70
2019-04-04T02:15:21.120Z,19.40
2019-04-04T02:16:21.082Z,21.30
2019-04-04T02:17:22.342Z,22.30
2019-04-04T02:18:23.343Z,26.80
2019-04-04T02:19:20.927Z,19.80
2019-04-04T02:20:20.847Z,26.00
2019-04-04T02:21:20.794Z,23.70
2019-04-04T02:22:20.736Z,26.00
2019-04-04T02:23:20.682Z,26.30
2019-04-04T02:24:20.650Z,24.40
2019-04-04T02:25:20.570Z,26.50
2019-04-04T02:26:20.515Z,25.90
2019-04-04T02:27:20.463Z,28.20
2019-04-04T02:28:20.410Z,26.10
2019-04-04T02:29:20.371Z,26.20
2019-04-04T02:30:20.299Z,29.70
2019-04-04T02:31:20.999Z,27.10
2019-04-04T02:32:20.192Z,26.70
2019-04-04T02:33:20.135Z,29.00
2019-04-04T02:34:20.125Z,30.50
2019-04-04T02:35:20.018Z,29.00
2019-04-04T02:36:19.966Z,32.60
2019-04-04T02:37:21.228Z,35.80
2019-04-04T02:38:19.851Z,30.70
2019-04-04T02:39:19.800Z,30.50
2019-04-04T02:40:19.775Z,35.20
2019-04-04T02:41:19.685Z,34.40
2019-04-04T02:42:22.122Z,34.00
2019-04-04T02:43:19.579Z,33.10
2019-04-04T02:44:19.526Z,38.30
2019-04-04T02:45:19.500Z,43.70
2019-04-04T02:46:19.416Z,32.80
2019-04-04T02:47:19.360Z,33.00
2019-04-04T02:48:23.434Z,33.30
2019-04-04T02:49:19.258Z,31.10
2019-04-04T02:50:19.219Z,38.10
2019-04-04T02:51:19.156Z,34.00
2019-04-04T02:52:19.081Z,30.20
2019-04-04T02:53:20.349Z,29.90
2019-04-04T02:54:18.968Z,35.10
2019-04-04T02:55:18.940Z,33.20
2019-04-04T02:56:18.871Z,42.80
2019-04-04T02:57:18.816Z,43.60
2019-04-04T02:58:18.753Z,38.40
2019-04-04T02:59:21.606Z,32.00
2019-04-04T03:00:18.755Z,27.80
2019-04-04T03:01:18.584Z,23.30
2019-04-04T03:02:18.534Z,25.20
2019-04-04T03:03:18.474Z,25.70
2019-04-04T03:04:18.432Z,27.80
2019-04-04T03:05:19.333Z,28.50
2019-04-04T03:06:18.304Z,28.60
2019-04-04T03:07:18.274Z,30.20
2019-04-04T03:08:18.198Z,33.80
2019-04-04T03:09:18.143Z,36.40
2019-04-04T03:10:18.120Z,33.60
2019-04-04T03:11:21.182Z,32.20
2019-04-04T03:12:17.975Z,26.90
2019-04-04T03:13:17.926Z,29.90
2019-04-04T03:14:17.866Z,31.50
2019-04-04T03:15:17.834Z,34.00
2019-04-04T03:16:21.144Z,37.30
2019-04-04T03:17:17.701Z,32.30
2019-04-04T03:18:17.642Z,26.40
2019-04-04T03:19:17.588Z,22.80
2019-04-04T03:20:17.728Z,21.80
2019-04-04T03:21:22.213Z,24.20
2019-04-04T03:22:17.422Z,21.40
2019-04-04T03:23:17.366Z,24.50
2019-04-04T03:24:17.307Z,23.90
2019-04-04T03:25:17.280Z,22.90
2019-04-04T03:26:20.112Z,29.60
2019-04-04T03:27:17.145Z,26.10
2019-04-04T03:28:17.085Z,23.80
2019-04-04T03:29:17.036Z,27.20
2019-04-04T03:30:17.506Z,25.20
2019-04-04T03:31:16.922Z,23.80
2019-04-04T03:32:17.519Z,27.20
2019-04-04T03:33:16.820Z,25.50
2019-04-04T03:34:16.757Z,23.00
2019-04-04T03:35:16.727Z,25.20
2019-04-04T03:36:16.645Z,27.30
2019-04-04T03:37:16.607Z,31.80
2019-04-04T03:38:16.541Z,18.90
2019-04-04T03:39:19.352Z,18.00
2019-04-04T03:40:16.450Z,20.90
2019-04-04T03:41:16.372Z,20.60
2019-04-04T03:42:16.312Z,21.50
2019-04-04T03:43:16.936Z,21.90
2019-04-04T03:44:19.487Z,24.40
2019-04-04T03:45:16.167Z,24.40
2019-04-04T03:46:16.091Z,24.30
2019-04-04T03:47:16.035Z,22.70
2019-04-04T03:48:17.586Z,23.00
2019-04-04T03:49:15.922Z,25.50
2019-04-04T03:50:15.899Z,39.40
2019-04-04T03:51:15.803Z,31.60
2019-04-04T03:52:15.748Z,27.60
2019-04-04T03:53:17.487Z,24.00
2019-04-04T03:54:15.648Z,24.60
2019-04-04T03:55:15.614Z,23.40
2019-04-04T03:56:15.530Z,22.90
2019-04-04T03:57:15.481Z,21.30
2019-04-04T03:58:15.416Z,22.20
2019-04-04T03:59:15.389Z,25.40
2019-04-04T04:00:15.311Z,23.30
2019-04-04T04:01:15.276Z,22.00
2019-04-04T04:02:17.957Z,27.70
2019-04-04T04:03:15.139Z,26.90
2019-04-04T04:04:15.117Z,26.90
2019-04-04T04:05:15.026Z,27.60
2019-04-04T04:06:15.007Z,23.40
2019-04-04T04:07:15.390Z,24.70
2019-04-04T04:08:14.862Z,26.30
2019-04-04T04:09:14.807Z,24.80
2019-04-04T04:10:14.756Z,24.60
2019-04-04T04:11:14.728Z,23.50
2019-04-04T04:12:14.640Z,25.10
2019-04-04T04:13:17.201Z,25.90
2019-04-04T04:14:14.544Z,26.60
2019-04-04T04:15:14.469Z,29.80
2019-04-04T04:16:14.439Z,28.90
2019-04-04T04:17:14.364Z,28.10
2019-04-04T04:18:14.302Z,29.00
2019-04-04T04:19:14.248Z,27.50
2019-04-04T04:20:14.193Z,26.80
2019-04-04T04:21:14.163Z,27.50
2019-04-04T04:22:18.216Z,27.90
2019-04-04T04:23:14.038Z,25.90
2019-04-04T04:24:13.969Z,27.10
2019-04-04T04:25:13.915Z,31.30
2019-04-04T04:26:13.888Z,33.60
2019-04-04T04:27:15.480Z,34.70
2019-04-04T04:28:13.759Z,32.60
2019-04-04T04:29:13.703Z,31.20
2019-04-04T04:30:13.645Z,34.20
2019-04-04T04:31:15.377Z,32.40
2019-04-04T04:32:13.528Z,31.70
2019-04-04T04:33:13.473Z,32.80
2019-04-04T04:34:13.422Z,33.50
2019-04-04T04:35:13.362Z,30.80
2019-04-04T04:36:15.824Z,31.60
2019-04-04T04:37:13.252Z,33.80
2019-04-04T04:38:13.195Z,34.80
2019-04-04T04:39:13.136Z,36.50
2019-04-04T04:40:15.112Z,33.90
2019-04-04T04:41:13.055Z,33.90
2019-04-04T04:42:12.970Z,31.10
2019-04-04T04:43:15.458Z,30.70
2019-04-04T04:44:12.865Z,30.00
2019-04-04T04:45:12.804Z,30.60
2019-04-04T04:46:16.941Z,29.20
2019-04-04T04:47:12.692Z,33.70
2019-04-04T04:48:12.637Z,31.00
2019-04-04T04:49:12.583Z,37.80
2019-04-04T04:50:12.541Z,31.90
2019-04-04T04:51:12.773Z,30.70
2019-04-04T04:52:15.182Z,27.90
2019-04-04T04:53:12.360Z,30.00
2019-04-04T04:54:12.310Z,30.70
2019-04-04T04:55:12.306Z,28.20
2019-04-04T04:56:12.214Z,30.50
2019-04-04T04:57:28.167Z,30.60
2019-04-04T04:58:12.136Z,28.80
2019-04-04T04:59:13.351Z,30.30
2019-04-04T05:00:11.977Z,29.50
2019-04-04T05:01:11.946Z,32.30
2019-04-04T05:02:11.862Z,34.90
2019-04-04T05:03:11.806Z,33.40
2019-04-04T05:04:11.751Z,31.20
2019-04-04T05:05:11.692Z,34.70
2019-04-04T05:06:11.668Z,42.60
2019-04-04T05:07:11.586Z,33.70
2019-04-04T05:08:11.530Z,38.90
2019-04-04T05:09:13.794Z,32.40
2019-04-04T05:10:12.942Z,34.00
2019-04-04T05:11:14.296Z,35.20
2019-04-04T05:12:11.325Z,37.00
2019-04-04T05:13:11.252Z,36.00
2019-04-04T05:14:11.201Z,34.30
2019-04-04T05:15:11.143Z,33.20
2019-04-04T05:16:11.111Z,33.30
2019-04-04T05:17:11.031Z,33.30
2019-04-04T05:18:11.968Z,37.50
2019-04-04T05:19:10.916Z,33.40
2019-04-04T05:20:10.865Z,31.20
2019-04-04T05:21:10.846Z,29.60
2019-04-04T05:22:10.774Z,31.80
2019-04-04T05:23:11.205Z,32.50
2019-04-04T05:24:10.657Z,30.80
2019-04-04T05:25:10.594Z,29.00
2019-04-04T05:26:10.566Z,31.20
2019-04-04T05:27:10.511Z,31.00
2019-04-04T05:28:10.835Z,31.40
2019-04-04T05:29:13.058Z,32.70
2019-04-04T05:30:10.316Z,33.50
2019-04-04T05:31:10.259Z,30.70
2019-04-04T05:32:10.225Z,31.30
2019-04-04T05:33:10.154Z,30.90
2019-04-04T05:34:10.111Z,29.70
2019-04-04T05:35:10.060Z,26.60
2019-04-04T05:36:10.005Z,27.90
2019-04-04T05:37:09.970Z,29.00
2019-04-04T05:38:12.252Z,30.10
2019-04-04T05:39:09.816Z,29.30
2019-04-04T05:40:09.770Z,31.30
2019-04-04T05:41:09.711Z,28.30
2019-04-04T05:42:09.693Z,30.80
2019-04-04T05:43:09.598Z,34.70
2019-04-04T05:44:10.354Z,27.30
2019-04-04T05:45:09.484Z,28.20
2019-04-04T05:46:09.428Z,28.10
2019-04-04T05:47:09.403Z,28.10
2019-04-04T05:48:09.339Z,31.30
2019-04-04T05:49:09.276Z,27.10
2019-04-04T05:50:11.356Z,30.10
2019-04-04T05:51:09.170Z,28.80
2019-04-04T05:52:09.312Z,25.70
2019-04-04T05:53:09.044Z,28.20
2019-04-04T05:54:08.995Z,31.50
2019-04-04T05:55:10.835Z,29.40
2019-04-04T05:56:08.878Z,32.50
2019-04-04T05:57:08.843Z,34.80
2019-04-04T05:58:08.769Z,31.10
2019-04-04T05:59:08.733Z,34.30
2019-04-04T06:00:08.679Z,30.90
2019-04-04T06:01:08.614Z,28.90
2019-04-04T06:02:11.005Z,31.40
2019-04-04T06:03:08.491Z,31.00
2019-04-04T06:04:08.442Z,29.00
2019-04-04T06:05:08.393Z,30.50
2019-04-04T06:06:10.470Z,30.80
2019-04-04T06:07:08.293Z,32.00
2019-04-04T06:08:08.802Z,34.30
2019-04-04T06:09:08.165Z,32.70
2019-04-04T06:10:08.103Z,37.60
2019-04-04T06:11:08.052Z,41.80
2019-04-04T06:12:08.024Z,43.10
2019-04-04T06:13:07.941Z,32.00
2019-04-04T06:14:07.889Z,32.40
2019-04-04T06:15:07.830Z,29.60
2019-04-04T06:16:07.775Z,32.00
2019-04-04T06:17:07.873Z,29.00
2019-04-04T06:18:10.941Z,31.90
2019-04-04T06:19:07.604Z,31.80
2019-04-04T06:20:07.556Z,33.10
2019-04-04T06:21:07.497Z,37.10
2019-04-04T06:22:07.470Z,30.50
2019-04-04T06:23:07.394Z,33.50
2019-04-04T06:24:07.336Z,32.30
2019-04-04T06:25:07.285Z,31.00
2019-04-04T06:26:07.743Z,33.20
2019-04-04T06:27:09.033Z,29.00
2019-04-04T06:28:07.118Z,32.40
2019-04-04T06:29:07.058Z,34.20
2019-04-04T06:30:07.003Z,31.00
2019-04-04T06:31:06.953Z,34.70
2019-04-04T06:32:06.913Z,34.10
2019-04-04T06:33:06.841Z,29.00
2019-04-04T06:34:10.148Z,28.70
2019-04-04T06:35:06.730Z,28.90
2019-04-04T06:36:06.676Z,29.10
2019-04-04T06:37:06.645Z,30.30
2019-04-04T06:38:06.574Z,27.70
2019-04-04T06:39:06.512Z,28.00
2019-04-04T06:40:06.461Z,28.40
2019-04-04T06:41:06.401Z,27.10
2019-04-04T06:42:06.371Z,27.20
2019-04-04T06:43:10.624Z,26.00
2019-04-04T06:44:06.231Z,26.70
2019-04-04T06:45:06.181Z,25.30
2019-04-04T06:46:06.125Z,26.60
2019-04-04T06:47:06.099Z,30.20
2019-04-04T06:48:06.018Z,30.30
2019-04-04T06:49:05.965Z,30.40
2019-04-04T06:50:08.034Z,32.40
2019-04-04T06:51:05.852Z,29.60
2019-04-04T06:52:05.825Z,34.60
2019-04-04T06:53:05.737Z,33.60
2019-04-04T06:54:05.690Z,35.40
2019-04-04T06:55:05.635Z,35.70
2019-04-04T06:56:05.579Z,32.50
2019-04-04T06:57:05.526Z,35.40
2019-04-04T06:58:08.392Z,37.10
2019-04-04T06:59:05.413Z,33.70
2019-04-04T07:00:05.361Z,33.30
2019-04-04T07:01:05.308Z,30.80
2019-04-04T07:02:05.458Z,30.90
2019-04-04T07:03:05.217Z,30.00
2019-04-04T07:04:05.143Z,28.00
2019-04-04T07:05:06.294Z,31.30
2019-04-04T07:06:05.035Z,29.60
2019-04-04T07:07:04.981Z,28.90
2019-04-04T07:08:04.942Z,29.80
2019-04-04T07:09:04.868Z,30.80
2019-04-04T07:10:04.816Z,27.90
2019-04-04T07:11:11.242Z,24.20
2019-04-04T07:12:06.512Z,24.20
2019-04-04T07:13:14.885Z,25.40
2019-04-04T07:14:04.598Z,26.80
2019-04-04T07:15:04.542Z,27.10
2019-04-04T07:16:07.841Z,29.10
2019-04-04T07:17:06.315Z,30.60
2019-04-04T07:18:04.404Z,26.20
2019-04-04T07:19:04.321Z,25.80
2019-04-04T07:20:04.270Z,23.10
2019-04-04T07:21:04.213Z,24.60
2019-04-04T07:22:04.162Z,24.60
2019-04-04T07:23:04.129Z,23.30
2019-04-04T07:24:04.053Z,21.90
2019-04-04T07:25:06.650Z,21.90
2019-04-04T07:26:03.942Z,23.70
2019-04-04T07:27:03.886Z,26.20
2019-04-04T07:28:03.858Z,27.70
2019-04-04T07:29:03.782Z,25.90
2019-04-04T07:30:03.724Z,28.50
2019-04-04T07:31:03.670Z,26.60
2019-04-04T07:32:03.618Z,26.10
2019-04-04T07:33:03.587Z,24.10
2019-04-04T07:34:03.502Z,26.90
2019-04-04T07:35:03.447Z,31.00
2019-04-04T07:36:03.399Z,34.30
2019-04-04T07:37:03.345Z,36.20
2019-04-04T07:38:03.312Z,39.70
2019-04-04T07:39:03.241Z,31.00
2019-04-04T07:40:04.359Z,33.50
2019-04-04T07:41:03.122Z,38.20
2019-04-04T07:42:03.070Z,39.10
2019-04-04T07:43:03.040Z,44.80
2019-04-04T07:44:02.966Z,32.90
2019-04-04T07:45:02.909Z,29.80
2019-04-04T07:46:15.751Z,30.80
2019-04-04T07:47:02.797Z,28.40
2019-04-04T07:48:02.771Z,25.00
2019-04-04T07:49:02.690Z,28.10
2019-04-04T07:50:02.637Z,25.30
2019-04-04T07:51:02.585Z,25.90
2019-04-04T07:52:02.532Z,24.10
2019-04-04T07:53:04.878Z,25.80
2019-04-04T07:54:02.418Z,26.20
2019-04-04T07:55:02.364Z,26.30
2019-04-04T07:56:02.307Z,26.90
2019-04-04T07:57:02.262Z,33.10
2019-04-04T07:58:02.228Z,30.90
2019-04-04T07:59:02.145Z,25.80
2019-04-04T08:00:02.128Z,23.30
2019-04-04T08:01:02.035Z,25.00
2019-04-04T08:02:01.988Z,26.20
2019-04-04T08:03:01.954Z,26.00
2019-04-04T08:04:01.868Z,27.00
2019-04-04T08:05:01.829Z,28.90
2019-04-04T08:06:01.774Z,29.50
2019-04-04T08:07:01.714Z,28.70
2019-04-04T08:08:01.681Z,27.00
2019-04-04T08:09:01.594Z,28.40
2019-04-04T08:10:01.551Z,28.80
2019-04-04T08:11:01.496Z,26.40
2019-04-04T08:12:01.442Z,23.80
2019-04-04T08:13:01.406Z,24.40
2019-04-04T08:14:01.327Z,22.10
2019-04-04T08:15:01.271Z,24.40
2019-04-04T08:16:01.221Z,25.50
2019-04-04T08:17:01.168Z,24.30
2019-04-04T08:18:01.134Z,25.00
2019-04-04T08:19:01.058Z,26.10
2019-04-04T08:20:00.999Z,24.30
2019-04-04T08:21:00.953Z,24.30
2019-04-04T08:22:00.917Z,25.10
2019-04-04T08:23:00.867Z,21.80
2019-04-04T08:24:00.786Z,21.70
2019-04-04T08:25:00.736Z,21.00
2019-04-04T08:26:00.679Z,22.20
2019-04-04T08:27:00.624Z,22.70
2019-04-04T08:28:00.586Z,23.00
2019-04-04T08:29:00.512Z,21.60
2019-04-04T08:30:00.454Z,24.50
2019-04-04T08:31:00.411Z,24.30
2019-04-04T08:32:00.346Z,23.10
2019-04-04T08:33:00.330Z,25.00
2019-04-04T08:34:00.239Z,25.30
2019-04-04T08:35:00.179Z,24.90
2019-04-04T08:36:05.903Z,24.60
2019-04-04T08:37:00.077Z,22.30
2019-04-04T08:38:00.025Z,21.60
2019-04-04T08:38:59.985Z,22.60
2019-04-04T08:39:59.916Z,23.60
2019-04-04T08:40:59.861Z,23.10
2019-04-04T08:41:59.804Z,23.10
2019-04-04T08:42:59.745Z,23.00
2019-04-04T08:43:59.712Z,22.90
2019-04-04T08:44:59.633Z,23.00
2019-04-04T08:45:59.584Z,22.20
2019-04-04T08:46:59.530Z,23.10
2019-04-04T08:47:59.478Z,22.50
2019-04-04T08:48:59.440Z,23.00
2019-04-04T08:49:59.361Z,23.20
2019-04-04T08:50:59.310Z,24.10
2019-04-04T08:51:59.259Z,24.10
2019-04-04T08:52:59.195Z,25.40
2019-04-04T08:53:59.171Z,26.80
2019-04-04T08:54:59.087Z,25.60
2019-04-04T08:55:59.028Z,26.70
2019-04-04T08:56:58.976Z,25.40
2019-04-04T08:57:58.929Z,25.10
2019-04-04T08:58:58.901Z,25.80
2019-04-04T08:59:58.810Z,23.20
2019-04-04T09:00:58.764Z,25.10
2019-04-04T09:01:58.708Z,23.70
2019-04-04T09:02:58.651Z,25.70
2019-04-04T09:03:58.629Z,24.40
2019-04-04T09:05:10.841Z,24.30
2019-04-04T09:05:58.489Z,25.60
2019-04-04T09:06:58.439Z,26.90
2019-04-04T09:07:58.387Z,24.30
2019-04-04T09:08:58.348Z,24.90
2019-04-04T09:09:58.269Z,26.60
2019-04-04T09:10:58.218Z,24.60
2019-04-04T09:11:58.162Z,24.90
2019-04-04T09:12:58.106Z,23.20
2019-04-04T09:13:58.080Z,24.70
2019-04-04T09:14:57.995Z,26.60
2019-04-04T09:15:57.940Z,24.00
2019-04-04T09:16:58.172Z,23.10
2019-04-04T09:17:57.831Z,23.70
2019-04-04T09:18:57.804Z,21.90
2019-04-04T09:19:57.726Z,24.80
2019-04-04T09:20:57.669Z,24.20
2019-04-04T09:21:57.617Z,23.60
2019-04-04T09:22:57.567Z,25.40
2019-04-04T09:24:00.474Z,27.40
2019-04-04T09:24:57.450Z,25.90
2019-04-04T09:26:05.403Z,25.90
2019-04-04T09:26:57.345Z,25.00
2019-04-04T09:27:57.289Z,28.00
2019-04-04T09:28:57.261Z,24.50
2019-04-04T09:29:57.177Z,25.50
2019-04-04T09:30:57.151Z,25.60
2019-04-04T09:31:57.067Z,27.70
2019-04-04T09:32:57.010Z,26.20
2019-04-04T09:33:56.980Z,25.40
2019-04-04T09:34:56.904Z,23.80
2019-04-04T09:35:56.853Z,24.60
2019-04-04T09:36:56.797Z,25.10
2019-04-04T09:37:56.739Z,23.80
2019-04-04T09:38:56.729Z,25.60
2019-04-04T09:39:56.627Z,25.20
2019-04-04T09:40:56.578Z,24.60
2019-04-04T09:41:56.517Z,27.10
2019-04-04T09:42:56.461Z,25.50
2019-04-04T09:43:56.411Z,26.50
2019-04-04T09:44:56.380Z,26.60
2019-04-04T09:45:56.304Z,25.60
2019-04-04T09:47:05.386Z,28.10
2019-04-04T09:47:56.188Z,27.60
2019-04-04T09:48:56.133Z,28.00
2019-04-04T09:49:56.108Z,26.60
2019-04-04T09:50:56.025Z,25.90
2019-04-04T09:51:55.972Z,27.50
2019-04-04T09:52:55.919Z,27.20
2019-04-04T09:53:55.861Z,27.30
2019-04-04T09:54:55.834Z,26.40
2019-04-04T09:55:55.753Z,27.80
2019-04-04T09:56:55.694Z,26.50
2019-04-04T09:57:55.638Z,26.60
2019-04-04T09:58:55.587Z,24.20
2019-04-04T09:59:55.552Z,25.90
2019-04-04T10:00:55.479Z,26.90
2019-04-04T10:01:55.416Z,26.50
2019-04-04T10:02:55.367Z,26.10
2019-04-04T10:03:55.313Z,26.60
2019-04-04T10:04:55.288Z,25.50
2019-04-04T10:05:55.374Z,26.50
2019-04-04T10:06:55.148Z,27.10
2019-04-04T10:07:55.096Z,26.20
2019-04-04T10:08:55.043Z,27.60
2019-04-04T10:09:55.010Z,27.30
2019-04-04T10:11:02.857Z,25.90
2019-04-04T10:11:54.875Z,26.90
2019-04-04T10:12:54.840Z,27.40
2019-04-04T10:13:54.766Z,26.80
2019-04-04T10:14:54.736Z,27.10
2019-04-04T10:15:54.661Z,29.40
2019-04-04T10:16:54.661Z,28.90
2019-04-04T10:17:54.552Z,29.10
2019-04-04T10:18:54.525Z,29.20
2019-04-04T10:19:54.506Z,29.70
2019-04-04T10:20:54.405Z,31.40
2019-04-04T10:21:54.329Z,31.00
2019-04-04T10:22:54.284Z,31.70
2019-04-04T10:23:54.234Z,30.70
2019-04-04T10:24:54.220Z,30.10
2019-04-04T10:25:54.130Z,32.70
2019-04-04T10:26:54.072Z,32.20
2019-04-04T10:27:54.012Z,32.90
2019-04-04T10:28:53.947Z,33.20
2019-04-04T10:29:53.940Z,33.10
2019-04-04T10:30:53.867Z,34.10
2019-04-04T10:31:53.790Z,33.20
2019-04-04T10:32:53.725Z,35.20
2019-04-04T10:33:53.679Z,34.50
2019-04-04T10:34:53.651Z,31.90
2019-04-04T10:35:53.553Z,33.10
2019-04-04T10:36:53.516Z,33.50
2019-04-04T10:37:53.459Z,34.80
2019-04-04T10:38:53.397Z,32.50
2019-04-04T10:39:53.373Z,33.60
2019-04-04T10:40:53.289Z,33.50
2019-04-04T10:41:53.244Z,32.90
2019-04-04T10:42:53.183Z,33.70
2019-04-04T10:43:53.133Z,32.30
2019-04-04T10:44:53.126Z,33.00
2019-04-04T10:45:53.013Z,34.50
2019-04-04T10:46:52.956Z,33.90
2019-04-04T10:47:52.904Z,33.20
2019-04-04T10:48:52.848Z,34.90
2019-04-04T10:49:52.822Z,35.80
2019-04-04T10:50:52.734Z,36.00
2019-04-04T10:51:52.697Z,36.60
2019-04-04T10:52:52.627Z,34.70
2019-04-04T10:53:52.579Z,36.80
2019-04-04T10:54:52.559Z,37.80
2019-04-04T10:55:52.497Z,40.10
2019-04-04T10:56:52.431Z,37.00
2019-04-04T10:57:52.360Z,39.00
2019-04-04T10:58:52.304Z,40.10
2019-04-04T10:59:54.636Z,35.00
2019-04-04T11:00:52.197Z,35.40
2019-04-04T11:01:52.146Z,39.50
2019-04-04T11:02:52.075Z,38.00
2019-04-04T11:03:52.040Z,35.00
2019-04-04T11:04:51.996Z,36.80
2019-04-04T11:05:51.918Z,36.00
2019-04-04T11:06:51.944Z,36.90
2019-04-04T11:07:51.809Z,39.40
2019-04-04T11:08:51.758Z,39.80
2019-04-04T11:09:51.744Z,39.80
2019-04-04T11:10:51.646Z,40.90
2019-04-04T11:11:51.587Z,39.60
2019-04-04T11:12:51.549Z,39.20
2019-04-04T11:13:51.477Z,40.60
2019-04-04T11:14:51.421Z,38.50
2019-04-04T11:15:51.396Z,38.90
2019-04-04T11:16:51.311Z,40.70
2019-04-04T11:17:51.266Z,40.90
2019-04-04T11:18:51.208Z,38.60
2019-04-04T11:19:51.155Z,38.30
2019-04-04T11:20:51.129Z,37.80
2019-04-04T11:21:51.049Z,38.90
2019-04-04T11:22:50.992Z,38.40
2019-04-04T11:23:50.936Z,35.90
2019-04-04T11:24:50.883Z,38.40
2019-04-04T11:25:50.981Z,41.00
2019-04-04T11:26:50.802Z,41.60
2019-04-04T11:27:50.778Z,36.50
2019-04-04T11:28:50.806Z,41.10
2019-04-04T11:29:50.606Z,37.20
2019-04-04T11:30:50.644Z,38.40
2019-04-04T11:31:50.497Z,38.50
2019-04-04T11:32:50.442Z,42.00
2019-04-04T11:33:50.397Z,42.80
2019-04-04T11:34:53.430Z,43.10
2019-04-04T11:35:50.299Z,41.10
2019-04-04T11:36:50.220Z,43.30
2019-04-04T11:37:50.211Z,42.40
2019-04-04T11:38:50.122Z,43.00
2019-04-04T11:39:54.831Z,41.80
2019-04-04T11:40:50.067Z,45.60
2019-04-04T11:41:49.959Z,41.40
2019-04-04T11:42:49.939Z,39.90
2019-04-04T11:43:49.861Z,38.20
2019-04-04T11:44:49.785Z,37.70
2019-04-04T11:45:49.789Z,36.90
2019-04-04T11:46:49.693Z,36.50
2019-04-04T11:47:49.643Z,36.40
2019-04-04T11:48:49.572Z,33.30
2019-04-04T11:49:49.514Z,34.00
2019-04-04T11:50:49.494Z,29.30
2019-04-04T11:51:49.414Z,29.50
2019-04-04T11:52:49.352Z,28.80
2019-04-04T11:53:49.307Z,30.00
2019-04-04T11:54:49.253Z,31.30
2019-04-04T11:55:49.227Z,28.70
2019-04-04T11:56:49.122Z,28.50
2019-04-04T11:57:49.081Z,28.80
2019-04-04T11:58:49.021Z,30.90
2019-04-04T11:59:48.979Z,30.70
2019-04-04T12:00:48.964Z,27.60
2019-04-04T12:01:48.861Z,27.90
2019-04-04T12:02:48.808Z,28.50
2019-04-04T12:03:48.754Z,25.90
2019-04-04T12:04:48.689Z,23.00
2019-04-04T12:05:48.673Z,22.70
2019-04-04T12:06:48.590Z,22.70
2019-04-04T12:07:48.536Z,25.10
2019-04-04T12:08:48.470Z,23.10
2019-04-04T12:09:48.447Z,25.20
2019-04-04T12:10:48.385Z,26.70
2019-04-04T12:11:48.312Z,24.00
2019-04-04T12:12:48.258Z,24.00
2019-04-04T12:13:50.455Z,22.40
2019-04-04T12:14:48.134Z,22.00
2019-04-04T12:15:48.134Z,23.10
2019-04-04T12:16:48.024Z,21.70
2019-04-04T12:17:47.976Z,22.00
2019-04-04T12:18:47.912Z,19.90
2019-04-04T12:19:47.856Z,21.60
2019-04-04T12:20:47.863Z,20.00
2019-04-04T12:21:55.431Z,21.00
2019-04-04T12:22:47.703Z,20.30
2019-04-04T12:23:47.773Z,19.00
2019-04-04T12:24:47.592Z,19.30
2019-04-04T12:25:47.559Z,19.50
2019-04-04T12:26:47.574Z,19.70
2019-04-04T12:27:47.424Z,19.40
2019-04-04T12:28:47.435Z,19.70
2019-04-04T12:29:47.305Z,18.40
2019-04-04T12:30:47.295Z,18.20
2019-04-04T12:31:47.205Z,18.80
2019-04-04T12:32:47.158Z,18.50
2019-04-04T12:33:47.095Z,18.70
2019-04-04T12:34:47.033Z,18.90
2019-04-04T12:35:47.019Z,17.80
2019-04-04T12:36:46.927Z,19.40
2019-04-04T12:37:46.863Z,19.00
2019-04-04T12:38:46.811Z,17.40
2019-04-04T12:39:46.790Z,16.10
2019-04-04T12:40:46.762Z,16.10
2019-04-04T12:41:46.654Z,15.40
2019-04-04T12:42:46.586Z,14.80
2019-04-04T12:43:46.529Z,15.00
2019-04-04T12:44:46.504Z,14.40
2019-04-04T12:45:46.464Z,16.10
2019-04-04T12:46:46.390Z,15.20
2019-04-04T12:47:46.338Z,15.80
2019-04-04T12:48:46.258Z,16.00
2019-04-04T12:49:46.216Z,15.40
2019-04-04T12:50:48.331Z,15.40
2019-04-04T12:51:46.122Z,14.50